Time;durP1;ratioP1;P1;durP2;ratioP2;P2;SDS_P1;SDS_P2;PMS_P1;PMS_P2;Temp;Humidity;BMP_temperature;BMP_pressure;BME280_temperature;BME280_humidity;BME280_pressure;Samples;Min_cycle;Max_cycle;Signal;HPM_P1;HPM_P2
2022/10/06 00:01:04;;;;;;;5.25;4.75;;;13.70;99.90;;;-141.84;83.31;18850.63;5111642;28;20231;-72
2022/10/06 00:03:33;;;;;;;4.55;4.15;;;13.70;99.90;;;-141.84;83.39;18828.28;5111775;28;20604;-72
2022/10/06 00:06:03;;;;;;;5.80;4.70;;;13.60;99.90;;;-141.84;83.71;18842.50;5111229;28;20288;-71
2022/10/06 00:08:34;;;;;;;4.93;4.40;;;13.50;99.90;;;-141.84;83.91;18775.44;5111842;28;20219;-71
2022/10/06 00:11:02;;;;;;;6.68;4.75;;;13.50;99.90;;;-141.84;84.16;18779.50;5112268;28;20192;-73
2022/10/06 00:13:31;;;;;;;4.93;4.53;;;13.50;99.90;;;-141.84;84.51;18775.44;5111638;28;20604;-72
2022/10/06 00:15:59;;;;;;;5.03;4.53;;;13.40;99.90;;;-141.84;84.85;18763.25;5111434;28;20227;-71
2022/10/06 00:18:29;;;;;;;4.82;4.43;;;13.40;99.90;;;-141.84;85.04;18775.44;5111491;28;20238;-70
2022/10/06 00:21:00;;;;;;;4.73;4.33;;;13.30;99.90;;;-141.84;85.39;18738.88;5097546;28;20231;-72
2022/10/06 00:23:29;;;;;;;4.85;4.45;;;13.40;99.90;;;-141.84;84.71;18753.09;5090997;28;20188;-72
2022/10/06 00:25:59;;;;;;;5.27;4.77;;;13.40;99.90;;;-141.84;84.94;18755.13;5102568;28;20234;-73
2022/10/06 00:28:27;;;;;;;5.55;4.43;;;13.40;99.90;;;-141.84;85.06;18720.59;5111008;27;20234;-71
2022/10/06 00:30:56;;;;;;;6.57;4.80;;;13.30;99.90;;;-141.84;85.40;18734.81;5111316;28;20330;-73
2022/10/06 00:33:24;;;;;;;5.57;4.22;;;13.30;99.90;;;-141.84;85.20;18765.28;5110933;28;20227;-72
2022/10/06 00:35:58;;;;;;;5.85;4.80;;;13.40;99.90;;;-141.84;84.70;18757.16;5110901;27;20714;-73
2022/10/06 00:38:26;;;;;;;4.85;4.35;;;13.40;99.90;;;-141.84;84.34;18718.56;5109969;28;20188;-71
2022/10/06 00:40:55;;;;;;;4.60;4.20;;;13.40;99.90;;;-141.84;84.29;18718.56;5111488;28;20293;-74
2022/10/06 00:43:48;;;;;;;4.53;4.13;;;13.50;99.90;;;-141.84;84.85;18742.94;5110832;28;20227;-73
2022/10/06 00:46:30;;;;;;;4.70;4.30;;;13.50;99.90;;;-141.84;85.10;18716.53;5110605;28;20227;-72
2022/10/06 00:49:08;;;;;;;6.13;4.90;;;13.50;99.90;;;-141.84;85.27;18720.59;5110727;28;20234;-73
2022/10/06 00:51:41;;;;;;;7.33;4.60;;;13.40;99.90;;;-141.84;85.38;18720.59;5110817;28;20614;-74
2022/10/06 00:54:10;;;;;;;4.65;4.15;;;13.40;99.90;;;-141.84;85.42;18712.47;5111317;28;20223;-72
2022/10/06 00:56:39;;;;;;;4.73;4.27;;;13.40;99.90;;;-141.84;85.17;18677.91;5112644;27;20624;-71
2022/10/06 00:59:13;;;;;;;4.72;4.07;;;13.40;99.90;;;-141.84;85.28;18724.66;5111472;28;20191;-72
2022/10/06 01:01:51;;;;;;;4.25;3.80;;;13.40;99.90;;;-141.84;84.90;18716.53;5110333;28;20638;-73
2022/10/06 01:04:23;;;;;;;4.30;3.90;;;13.50;99.90;;;-141.84;84.84;18679.94;5110715;28;20477;-71
2022/10/06 01:06:55;;;;;;;4.45;3.42;;;13.40;99.90;;;-141.84;84.81;18696.19;5110334;28;20226;-71
2022/10/06 01:09:24;;;;;;;4.25;3.85;;;13.40;99.90;;;-141.84;84.65;18726.69;5109715;28;20238;-72
2022/10/06 01:11:57;;;;;;;5.07;3.53;;;13.50;99.90;;;-141.84;83.73;18712.47;5110573;27;20679;-73
2022/10/06 01:14:28;;;;;;;4.03;3.47;;;13.60;99.90;;;-141.84;83.15;18702.28;5110498;28;20195;-72
2022/10/06 01:17:02;;;;;;;6.07;3.80;;;13.60;99.90;;;-141.84;82.89;18757.16;5110938;28;20184;-73
2022/10/06 01:19:46;;;;;;;4.13;3.60;;;13.70;99.90;;;-141.84;82.39;18755.13;5108710;28;20218;-71
2022/10/06 01:22:17;;;;;;;3.75;3.45;;;13.80;99.90;;;-141.84;81.89;18773.41;5089899;28;20280;-72
2022/10/06 01:24:51;;;;;;;5.30;3.60;;;14.00;99.90;;;-141.84;80.46;18769.34;5091032;28;20227;-73
2022/10/06 01:27:22;;;;;;;3.35;3.05;;;14.00;99.90;;;-141.84;80.07;18803.88;5110253;28;20231;-70
2022/10/06 01:29:55;;;;;;;3.70;3.40;;;14.20;99.90;;;-141.84;79.59;18862.81;5110541;28;20229;-71
2022/10/06 01:32:26;;;;;;;3.40;3.10;;;14.20;99.90;;;-141.84;79.43;18816.06;5110399;28;20187;-70
2022/10/06 01:34:54;;;;;;;4.03;3.20;;;14.20;99.90;;;-141.84;79.48;18842.50;5110903;28;20188;-71
2022/10/06 01:37:22;;;;;;;3.50;3.30;;;14.30;99.90;;;-141.84;79.63;18822.19;5110526;28;20276;-74
2022/10/06 01:39:52;;;;;;;4.40;3.25;;;14.20;99.90;;;-141.84;80.01;18779.50;5110180;28;20759;-70
2022/10/06 01:42:20;;;;;;;4.68;3.47;;;14.20;99.90;;;-141.84;80.23;18791.69;5109528;28;20227;-71
2022/10/06 01:44:48;;;;;;;3.72;3.40;;;14.10;99.90;;;-141.84;80.56;18797.78;5109143;28;20226;-71
2022/10/06 01:47:16;;;;;;;3.97;3.40;;;14.00;99.90;;;-141.84;80.79;18755.13;5110382;28;20223;-72
2022/10/06 01:49:44;;;;;;;5.00;4.18;;;13.90;99.90;;;-141.84;81.12;18724.66;5109778;28;20921;-70
2022/10/06 01:52:12;;;;;;;3.88;3.58;;;13.90;99.90;;;-141.84;81.13;18763.25;5110075;28;20230;-71
2022/10/06 01:54:40;;;;;;;5.03;3.58;;;13.80;99.90;;;-141.84;81.62;18736.84;5110114;28;20230;-72
2022/10/06 01:57:09;;;;;;;4.40;4.00;;;13.80;99.90;;;-141.84;81.59;18704.31;5109848;28;20647;-72
2022/10/06 01:59:37;;;;;;;4.18;3.75;;;13.80;99.90;;;-141.84;81.72;18759.19;5109927;28;20195;-72
2022/10/06 02:02:05;;;;;;;5.43;4.00;;;13.80;99.90;;;-141.84;81.87;18732.78;5110332;28;20608;-72
2022/10/06 02:04:33;;;;;;;4.73;3.77;;;13.80;99.90;;;-141.84;81.92;18744.97;5109700;28;20242;-72
2022/10/06 02:07:02;;;;;;;4.15;3.75;;;13.80;99.90;;;-141.84;81.84;18738.88;5109986;28;20227;-72
2022/10/06 02:09:30;;;;;;;4.90;3.75;;;13.80;99.90;;;-141.84;82.12;18751.06;5109869;28;20231;-72
2022/10/06 02:11:58;;;;;;;4.82;3.80;;;13.80;99.90;;;-141.84;81.82;18744.97;5110016;28;20776;-72
2022/10/06 02:14:30;;;;;;;4.55;3.78;;;13.80;99.90;;;-141.84;81.65;18722.63;5110064;28;20203;-71
2022/10/06 02:16:59;;;;;;;4.68;4.07;;;13.80;99.90;;;-141.84;81.92;18753.09;5110451;28;20187;-72
2022/10/06 02:19:27;;;;;;;4.22;3.53;;;13.80;99.90;;;-141.84;81.93;18724.66;5110815;28;20229;-71
2022/10/06 02:21:57;;;;;;;5.00;4.13;;;13.70;99.90;;;-141.84;82.05;18692.13;5112866;28;20284;-72
2022/10/06 02:24:25;;;;;;;4.88;4.05;;;13.70;99.90;;;-141.84;82.41;18681.97;5113579;28;20230;-70
2022/10/06 02:26:53;;;;;;;4.18;3.83;;;13.60;99.90;;;-141.84;82.62;18671.81;5094797;28;20598;-71
2022/10/06 02:29:21;;;;;;;4.70;3.80;;;13.60;99.90;;;-141.84;82.88;18736.84;5093482;28;20212;-73
2022/10/06 02:31:51;;;;;;;4.55;4.10;;;13.50;99.90;;;-141.84;83.13;18675.88;5093504;28;20212;-72
2022/10/06 02:34:19;;;;;;;5.40;3.97;;;13.50;99.90;;;-141.84;83.40;18686.03;5093055;28;20254;-71
2022/10/06 02:36:47;;;;;;;3.88;3.58;;;13.40;99.90;;;-141.84;83.69;18647.44;5093294;28;20227;-71
2022/10/06 02:39:15;;;;;;;5.55;4.60;;;13.50;99.90;;;-141.84;83.14;18677.91;5094107;28;20227;-71
2022/10/06 02:41:43;;;;;;;5.32;4.20;;;13.60;99.90;;;-141.84;82.76;18675.88;5092374;28;20710;-73
2022/10/06 02:44:11;;;;;;;3.85;3.55;;;13.60;99.90;;;-141.84;82.94;18667.75;5092775;28;20208;-70
2022/10/06 02:46:40;;;;;;;5.93;4.20;;;13.60;99.90;;;-141.84;83.40;18679.94;5092539;28;20232;-72
2022/10/06 02:49:10;;;;;;;4.70;4.00;;;13.60;99.90;;;-141.84;83.61;18639.31;5092274;28;20310;-72
2022/10/06 02:51:37;;;;;;;5.03;4.00;;;13.50;99.90;;;-141.84;83.61;18657.59;5092742;28;20224;-72
2022/10/06 02:54:06;;;;;;;4.75;4.13;;;13.60;99.90;;;-141.84;83.38;18645.41;5100220;28;20229;-72
2022/10/06 02:56:34;;;;;;;4.00;3.70;;;13.50;99.90;;;-141.84;83.20;18702.28;5112598;28;20207;-71
2022/10/06 02:59:02;;;;;;;4.35;3.95;;;13.60;99.90;;;-141.84;83.01;18700.25;5113592;28;20207;-72
2022/10/06 03:01:30;;;;;;;5.75;4.03;;;13.60;99.90;;;-141.84;82.49;18698.22;5112637;28;20227;-71
2022/10/06 03:03:58;;;;;;;4.18;3.65;;;13.70;99.90;;;-141.84;82.19;18704.31;5112871;28;20223;-71
2022/10/06 03:06:30;;;;;;;5.38;3.78;;;13.80;99.90;;;-141.84;81.45;18734.81;5113145;28;20235;-72
2022/10/06 03:09:01;;;;;;;5.80;3.33;;;13.80;99.90;;;-141.84;80.43;18742.94;5112714;28;20675;-71
2022/10/06 03:11:32;;;;;;;4.68;3.72;;;14.10;99.90;;;-141.84;79.15;18797.78;5113009;28;20662;-71
2022/10/06 03:14:01;;;;;;;4.93;3.20;;;14.20;99.90;;;-141.84;77.49;18830.31;5111895;28;20198;-72
2022/10/06 03:16:32;;;;;;;10.23;7.10;;;14.40;99.90;;;-141.84;76.58;18883.13;5110643;28;20235;-71
2022/10/06 03:19:02;;;;;;;3.65;3.35;;;14.60;99.90;;;-141.84;76.05;18907.50;5110900;28;20219;-71
2022/10/06 03:21:35;;;;;;;4.47;3.25;;;14.80;99.90;;;-141.84;75.38;18944.09;5110668;28;20322;-72
2022/10/06 03:24:04;;;;;;;3.55;3.08;;;14.80;99.90;;;-141.84;75.33;18929.88;5112742;28;20234;-72
2022/10/06 03:26:35;;;;;;;4.45;3.40;;;15.00;99.90;;;-141.84;75.48;18950.19;5112813;27;20187;-70
2022/10/06 03:29:04;;;;;;;5.90;3.40;;;15.10;99.90;;;-141.84;75.57;18942.06;5113250;28;20184;-72
2022/10/06 03:31:38;;;;;;;3.38;3.08;;;15.10;99.90;;;-141.84;75.08;18940.03;5111693;28;20232;-71
2022/10/06 03:34:07;;;;;;;5.65;3.55;;;15.10;99.90;;;-141.84;74.62;18956.28;5112480;28;20235;-73
2022/10/06 03:36:37;;;;;;;3.40;3.10;;;15.10;99.90;;;-141.84;75.51;18940.03;5111801;28;20231;-71
2022/10/06 03:39:06;;;;;;;4.90;3.13;;;15.00;99.90;;;-141.84;76.21;18917.66;5111560;28;20279;-73
2022/10/06 03:41:37;;;;;;;4.10;3.20;;;15.00;99.90;;;-141.84;76.24;18927.84;5112304;28;20199;-73
2022/10/06 03:44:05;;;;;;;5.53;3.60;;;14.90;99.90;;;-141.84;76.08;18911.56;5112899;28;20180;-71
2022/10/06 03:46:36;;;;;;;3.60;3.30;;;15.00;99.90;;;-141.84;75.33;18950.19;5111786;28;20227;-72
2022/10/06 03:49:04;;;;;;;3.80;3.20;;;15.10;99.90;;;-141.84;75.45;18950.19;5112145;27;20219;-71
2022/10/06 03:51:38;;;;;;;3.97;3.58;;;15.10;99.90;;;-141.84;75.63;18952.22;5111433;28;20238;-70
2022/10/06 03:54:09;;;;;;;3.38;3.08;;;15.10;99.90;;;-141.84;75.54;18976.59;5111967;28;20227;-72
2022/10/06 03:56:40;;;;;;;3.53;3.25;;;15.10;99.90;;;-141.84;75.82;18948.16;5112149;28;20211;-72
2022/10/06 03:59:10;;;;;;;4.32;3.50;;;15.20;99.90;;;-141.84;76.22;18931.91;5112699;28;20187;-73
2022/10/06 04:01:41;;;;;;;3.83;3.40;;;15.10;99.90;;;-141.84;76.06;18970.50;5111565;28;20533;-73
2022/10/06 04:04:11;;;;;;;4.20;3.80;;;15.00;99.90;;;-141.84;75.74;18925.81;5111190;28;20310;-72
2022/10/06 04:06:43;;;;;;;3.97;3.55;;;15.10;99.90;;;-141.84;76.31;18887.19;5111511;28;20223;-70
2022/10/06 04:09:13;;;;;;;4.63;3.40;;;14.90;99.90;;;-141.84;76.81;18913.59;5111520;28;20234;-70
2022/10/06 04:11:44;;;;;;;4.43;3.25;;;14.90;99.90;;;-141.84;76.93;18929.88;5111740;28;20307;-72
2022/10/06 04:14:16;;;;;;;4.40;3.50;;;14.80;99.90;;;-141.84;77.02;18919.69;5112290;28;20726;-72
2022/10/06 04:16:46;;;;;;;5.45;3.20;;;14.90;99.90;;;-141.84;76.96;18907.50;5111402;28;20254;-71
2022/10/06 04:19:17;;;;;;;3.97;3.58;;;14.80;99.90;;;-141.84;76.88;18915.63;5111630;28;20223;-72
2022/10/06 04:21:47;;;;;;;4.05;3.28;;;14.80;99.90;;;-141.84;76.55;18927.84;5096384;28;20242;-71
2022/10/06 04:24:17;;;;;;;4.85;3.58;;;14.90;99.90;;;-141.84;76.26;18940.03;5091000;28;20641;-71
2022/10/06 04:26:47;;;;;;;4.10;3.13;;;14.90;99.90;;;-141.84;75.58;18970.50;5091692;28;20337;-72
2022/10/06 04:29:16;;;;;;;4.35;3.22;;;15.00;99.90;;;-141.84;75.69;18962.38;5092746;28;20184;-72
2022/10/06 04:31:44;;;;;;;6.47;3.42;;;15.10;99.90;;;-141.84;75.89;18978.63;5092192;28;20230;-73
2022/10/06 04:34:13;;;;;;;3.47;3.17;;;15.10;99.90;;;-141.84;75.96;18976.59;5091716;28;20292;-72
2022/10/06 04:36:42;;;;;;;3.55;3.08;;;15.00;99.90;;;-141.84;75.98;18952.22;5090089;28;20223;-71
2022/10/06 04:39:12;;;;;;;2.65;2.45;;;15.10;99.90;;;-141.84;73.96;19017.25;5090244;28;20274;-71
2022/10/06 04:41:46;;;;;;;2.33;1.80;;;15.20;99.90;;;-141.84;71.96;19124.94;5090636;28;20180;-73
2022/10/06 04:44:14;;;;;;;1.73;1.58;;;15.40;99.90;;;-141.84;71.53;19096.47;5090384;28;20180;-71
2022/10/06 04:46:42;;;;;;;1.92;1.55;;;15.40;99.90;;;-141.84;70.94;19141.19;5099145;28;20611;-71
2022/10/06 04:49:12;;;;;;;1.73;1.40;;;15.40;99.90;;;-141.84;71.14;19106.66;5110871;27;20234;-72
2022/10/06 04:51:47;;;;;;;2.95;1.38;;;15.30;99.90;;;-141.84;69.61;19189.97;5110628;27;20311;-72
2022/10/06 04:54:17;;;;;;;2.35;1.20;;;15.40;99.90;;;-141.84;70.20;19139.16;5110883;28;20334;-71
2022/10/06 04:56:45;;;;;;;1.58;1.10;;;15.30;99.90;;;-141.84;70.11;19135.09;5110459;28;20257;-72
2022/10/06 04:59:13;;;;;;;2.03;1.10;;;15.20;99.90;;;-141.84;70.43;19143.22;5111332;28;20203;-73
2022/10/06 05:01:41;;;;;;;1.58;1.10;;;15.10;99.90;;;-141.84;70.55;19106.66;5109988;28;20637;-72
2022/10/06 05:04:09;;;;;;;3.10;1.20;;;15.10;99.90;;;-141.84;70.55;19155.41;5110397;28;20235;-71
2022/10/06 05:06:40;;;;;;;1.80;0.80;;;15.00;99.90;;;-141.84;69.72;19153.38;5110296;28;20254;-71
2022/10/06 05:09:11;;;;;;;2.28;1.25;;;15.00;99.90;;;-141.84;70.22;19118.84;5110660;27;20249;-71
2022/10/06 05:11:40;;;;;;;1.40;0.70;;;14.90;99.90;;;-141.84;68.67;19216.38;5110366;28;20223;-72
2022/10/06 05:14:08;;;;;;;1.58;0.65;;;15.00;99.90;;;-141.84;68.81;19204.19;5110874;28;20203;-72
2022/10/06 05:16:37;;;;;;;1.52;0.80;;;14.90;99.90;;;-141.84;68.96;19171.66;5110128;28;20542;-71
2022/10/06 05:19:06;;;;;;;0.80;0.70;;;14.90;99.90;;;-141.84;68.83;19185.88;5110462;28;20617;-71
2022/10/06 05:21:35;;;;;;;0.93;0.60;;;14.90;99.90;;;-141.84;69.54;19163.53;5096611;28;20230;-71
2022/10/06 05:24:03;;;;;;;1.50;0.80;;;14.90;99.90;;;-141.84;69.46;19167.59;5090449;28;20641;-71
2022/10/06 05:26:34;;;;;;;1.33;0.70;;;14.90;99.90;;;-141.84;70.28;19102.56;5091020;28;20533;-71
2022/10/06 05:29:04;;;;;;;1.27;0.90;;;14.80;99.90;;;-141.84;70.57;19094.44;5091524;28;20177;-71
2022/10/06 05:31:37;;;;;;;0.80;0.70;;;14.70;99.90;;;-141.84;70.47;19114.78;5090595;28;20443;-72
2022/10/06 05:34:06;;;;;;;3.58;0.75;;;14.70;99.90;;;-141.84;70.65;19114.78;5090705;28;20285;-71
2022/10/06 05:36:34;;;;;;;1.73;0.95;;;14.60;99.90;;;-141.84;69.78;19147.28;5090422;28;20227;-71
2022/10/06 05:39:03;;;;;;;1.73;0.82;;;14.70;99.90;;;-141.84;70.34;19151.34;5090872;28;20228;-72
2022/10/06 05:41:36;;;;;;;1.10;0.80;;;14.70;99.90;;;-141.84;71.63;19021.31;5089424;28;20200;-71
2022/10/06 05:44:07;;;;;;;1.23;1.00;;;14.60;99.90;;;-141.84;72.58;19066.00;5109426;28;20623;-71
2022/10/06 05:46:36;;;;;;;1.70;0.70;;;14.60;99.90;;;-141.84;73.59;19027.41;5110646;28;20223;-72
2022/10/06 05:49:07;;;;;;;1.30;0.70;;;14.50;99.90;;;-141.84;75.12;18964.41;5110855;28;20271;-69
2022/10/06 05:51:38;;;;;;;2.08;0.95;;;14.40;99.90;;;-141.84;76.19;18919.69;5110581;28;20250;-68
2022/10/06 05:54:07;;;;;;;1.77;0.90;;;14.30;99.90;;;-141.84;76.83;18911.56;5111820;28;20229;-69
2022/10/06 05:56:37;;;;;;;0.95;0.80;;;14.30;99.90;;;-141.84;77.52;18899.38;5114902;28;20203;-67
2022/10/06 05:59:07;;;;;;;0.93;0.90;;;14.20;99.90;;;-141.84;78.06;18893.28;5115596;28;20206;-68
2022/10/06 06:01:38;;;;;;;0.70;0.70;;;14.20;99.90;;;-141.84;77.25;18887.19;5114333;28;20226;-68
2022/10/06 06:04:09;;;;;;;0.70;0.70;;;14.20;99.90;;;-141.84;76.71;18915.63;5113984;28;20756;-68
2022/10/06 06:06:39;;;;;;;2.08;0.80;;;14.20;99.90;;;-141.84;76.74;18901.41;5114455;28;20285;-69
2022/10/06 06:09:09;;;;;;;1.42;0.95;;;14.20;99.90;;;-141.84;76.49;18897.34;5114617;28;20557;-68
2022/10/06 06:11:42;;;;;;;1.88;0.80;;;14.20;99.90;;;-141.84;76.96;18883.13;5114727;28;20207;-68
2022/10/06 06:14:13;;;;;;;1.63;0.90;;;14.30;99.90;;;-141.84;77.48;18866.88;5115285;28;20188;-67
2022/10/06 06:16:42;;;;;;;2.28;0.90;;;14.20;99.90;;;-141.84;76.22;18915.63;5114604;28;20698;-69
2022/10/06 06:19:13;;;;;;;1.42;0.98;;;14.30;99.90;;;-141.84;76.72;18891.25;5114627;28;20223;-68
2022/10/06 06:21:41;;;;;;;1.30;0.93;;;14.20;99.90;;;-141.84;76.51;18909.53;5100246;28;20227;-68
2022/10/06 06:24:09;;;;;;;1.73;0.75;;;14.20;99.90;;;-141.84;75.08;18911.56;5094070;28;20277;-67
2022/10/06 06:26:38;;;;;;;0.70;0.68;;;14.30;99.90;;;-141.84;74.73;18883.13;5094385;28;20211;-68
2022/10/06 06:29:06;;;;;;;0.73;0.68;;;14.20;99.90;;;-141.84;74.86;18907.50;5094735;28;20196;-67
2022/10/06 06:31:38;;;;;;;0.90;0.70;;;14.20;99.90;;;-141.84;74.30;18927.84;5093902;28;20228;-69
2022/10/06 06:34:07;;;;;;;2.35;0.60;;;14.30;99.90;;;-141.84;73.29;19015.19;5093986;28;20301;-68
2022/10/06 06:36:39;;;;;;;1.15;0.80;;;14.40;99.90;;;-141.84;73.67;19015.19;5094184;28;20310;-69
2022/10/06 06:39:10;;;;;;;4.15;0.85;;;14.40;99.90;;;-141.84;73.67;18996.91;5102461;28;20635;-69
2022/10/06 06:41:40;;;;;;;2.80;1.10;;;14.40;99.90;;;-141.84;73.38;19007.06;5113215;28;20189;-69
2022/10/06 06:44:10;;;;;;;0.95;0.80;;;14.40;99.90;;;-141.84;72.66;18990.81;5114681;28;20187;-69
2022/10/06 06:59:07;;;;;;;1.33;0.77;;;14.50;99.90;;;-141.84;71.62;19076.16;5113264;28;20335;-69
2022/10/06 07:01:36;;;;;;;1.27;1.10;;;14.70;99.90;;;-141.84;70.27;19104.59;5115127;28;20232;-68
2022/10/06 07:04:05;;;;;;;2.67;1.20;;;14.60;99.90;;;-141.84;70.82;19112.75;5115101;28;20298;-70
2022/10/06 07:06:38;;;;;;;2.88;1.38;;;14.70;99.90;;;-141.84;68.96;19169.63;5113610;28;20551;-68
2022/10/06 07:09:08;;;;;;;2.45;1.35;;;14.80;99.90;;;-141.84;69.71;19143.22;5114341;28;20643;-69
2022/10/06 07:11:39;;;;;;;3.13;1.50;;;14.80;99.90;;;-141.84;70.79;19116.81;5114416;28;20579;-68
2022/10/06 07:14:11;;;;;;;1.85;1.30;;;14.60;99.90;;;-141.84;69.07;19155.41;5114383;28;20184;-69
2022/10/06 07:25:20;;;;;;;2.75;1.55;;;14.60;99.90;;;-141.84;66.95;19238.72;5114578;28;20204;-70
2022/10/06 07:27:54;;;;;;;2.17;1.52;;;14.70;99.90;;;-141.84;67.10;19281.41;5111710;28;20195;-69
2022/10/06 07:30:27;;;;;;;2.60;1.50;;;14.70;99.90;;;-141.84;66.72;19287.50;5114382;28;20240;-67
2022/10/06 07:32:55;;;;;;;2.22;1.60;;;14.60;99.90;;;-141.84;66.58;19263.09;5113314;28;20207;-68
2022/10/06 07:35:25;;;;;;;2.10;1.55;;;14.60;99.90;;;-141.84;67.07;19254.97;5113759;28;20192;-68
2022/10/06 07:37:53;;;;;;;2.25;1.25;;;14.70;99.90;;;-141.84;65.95;19332.19;5113208;28;20203;-67
2022/10/06 07:40:21;;;;;;;3.35;1.95;;;14.70;99.90;;;-141.84;66.18;19336.25;5113236;28;20210;-67
2022/10/06 07:42:50;;;;;;;4.72;1.60;;;14.90;99.90;;;-141.84;63.99;19500.88;5113739;28;20204;-69
2022/10/06 07:45:40;;;;;;;4.95;1.48;;;15.00;99.90;;;-141.84;61.37;19661.41;5114525;28;20199;-68
2022/10/06 07:48:14;;;;;;;3.42;1.77;;;15.10;99.90;;;-141.84;61.84;19693.94;5114408;28;20211;-69
2022/10/06 07:50:44;;;;;;;3.58;1.80;;;15.20;99.90;;;-141.84;60.98;19834.16;5114228;28;20579;-69
2022/10/06 07:53:12;;;;;;;4.13;1.50;;;15.30;99.90;;;-141.84;60.31;19947.97;5113954;28;20618;-69
2022/10/06 07:55:44;;;;;;;6.18;1.50;;;15.40;99.90;;;-141.84;58.36;20088.22;5114431;28;20211;-68
2022/10/06 07:58:13;;;;;;;3.08;1.40;;;15.50;99.90;;;-141.84;59.20;20029.28;5113695;28;20610;-68
2022/10/06 08:00:42;;;;;;;5.57;1.60;;;15.50;99.90;;;-141.84;58.53;20114.63;5113988;28;20223;-69
2022/10/06 08:03:16;;;;;;;4.78;1.77;;;15.50;99.90;;;-141.84;59.26;20098.38;5114257;28;20195;-68
2022/10/06 08:05:45;;;;;;;5.20;1.60;;;15.50;99.90;;;-141.84;58.46;20143.09;5113969;28;20183;-68
2022/10/06 08:08:15;;;;;;;5.00;1.50;;;15.60;99.90;;;-141.84;59.00;20122.78;5114002;28;20203;-68
2022/10/06 08:10:43;;;;;;;4.53;1.58;;;15.70;99.90;;;-141.84;59.01;20165.44;5113787;28;20199;-68
2022/10/06 08:13:11;;;;;;;3.75;1.52;;;15.80;99.90;;;-141.84;58.96;20165.44;5113370;28;20223;-68
2022/10/06 08:15:39;;;;;;;4.03;1.80;;;15.90;99.90;;;-141.84;59.51;20141.06;5113860;28;20215;-67
2022/10/06 08:18:07;;;;;;;3.88;1.40;;;15.90;99.90;;;-141.84;58.57;20175.63;5113556;28;20206;-68
2022/10/06 08:20:55;;;;;;;4.78;1.40;;;16.00;99.90;;;-141.84;56.89;20269.13;5113801;28;20191;-68
2022/10/06 08:23:23;;;;;;;4.78;1.60;;;16.00;99.90;;;-141.84;56.98;20299.59;5113716;28;20195;-68
2022/10/06 08:25:55;;;;;;;2.70;1.33;;;16.10;99.90;;;-141.84;57.49;20254.88;5113366;28;20207;-68
2022/10/06 08:28:23;;;;;;;3.75;1.70;;;16.10;99.90;;;-141.84;57.98;20263.00;5113008;28;20663;-68
2022/10/06 08:30:51;;;;;;;3.38;1.38;;;16.20;99.90;;;-141.84;56.31;20338.22;5113587;28;20541;-67
2022/10/06 08:33:19;;;;;;;5.80;1.42;;;16.40;99.90;;;-141.84;55.24;20456.13;5113491;28;20326;-68
2022/10/06 08:35:48;;;;;;;3.55;1.25;;;16.50;99.90;;;-141.84;55.80;20411.41;5113193;28;20214;-68
2022/10/06 08:38:18;;;;;;;3.72;1.50;;;16.50;99.90;;;-141.84;56.56;20403.25;5113364;28;20196;-67
2022/10/06 08:40:47;;;;;;;3.35;1.27;;;16.40;99.90;;;-141.84;57.23;20378.88;5112875;28;20586;-69
2022/10/06 08:43:21;;;;;;;3.40;1.50;;;16.40;99.90;;;-141.84;56.41;20423.59;5113021;28;20195;-69
2022/10/06 08:45:58;;;;;;;3.90;1.50;;;16.40;99.90;;;-141.84;56.14;20429.69;5113509;28;20183;-68
2022/10/06 08:48:37;;;;;;;8.40;1.98;;;16.40;99.90;;;-141.84;54.88;20474.41;5113272;28;20183;-67
2022/10/06 08:51:23;;;;;;;2.45;1.50;;;16.50;99.90;;;-141.84;55.03;20468.31;5112847;28;20195;-68
2022/10/06 08:54:07;;;;;;;4.00;1.55;;;16.60;99.90;;;-141.84;53.83;20496.78;5113113;28;20614;-68
2022/10/06 08:56:47;;;;;;;5.38;1.88;;;16.50;99.90;;;-141.84;54.22;20508.97;5112966;28;20222;-69
2022/10/06 08:59:16;;;;;;;4.57;1.40;;;16.50;99.90;;;-141.84;54.16;20508.97;5113051;28;20192;-69
2022/10/06 09:01:47;;;;;;;4.03;1.70;;;16.60;99.90;;;-141.84;53.70;20496.78;5113612;28;20268;-67
2022/10/06 09:04:25;;;;;;;8.35;1.65;;;16.60;99.90;;;-141.84;53.07;20559.78;5113190;28;20187;-71
2022/10/06 09:07:02;;;;;;;4.20;1.50;;;16.70;99.90;;;-141.84;52.75;20594.34;5113034;28;20233;-70
2022/10/06 09:10:17;;;;;;;6.45;2.72;;;16.80;99.90;;;-141.84;52.22;20641.09;5112836;28;20210;-70
2022/10/06 09:12:54;;;;;;;3.42;1.50;;;17.00;99.90;;;-141.84;51.16;20724.44;5112601;28;20257;-68
2022/10/06 09:15:34;;;;;;;5.07;1.58;;;17.30;99.90;;;-141.84;50.51;20803.72;5113314;28;20236;-70
2022/10/06 09:18:13;;;;;;;4.15;1.42;;;17.50;99.90;;;-141.84;50.04;20870.81;5113080;28;20551;-70
2022/10/06 09:20:50;;;;;;;3.95;1.40;;;17.80;99.90;;;-141.84;48.34;20931.78;5112080;28;20627;-68
2022/10/06 09:23:46;;;;;;;5.25;1.30;;;17.90;99.90;;;-141.84;49.48;20935.88;5112949;28;20248;-70
2022/10/06 09:26:16;;;;;;;5.85;1.67;;;18.00;99.90;;;-141.84;48.90;20925.69;5112567;28;20258;-67
2022/10/06 09:28:45;;;;;;;6.85;1.55;;;18.10;99.90;;;-141.84;47.65;20980.59;5094655;28;20203;-68
2022/10/06 09:31:24;;;;;;;6.72;1.60;;;18.10;99.90;;;-141.84;48.41;20891.13;5092283;28;20214;-70
2022/10/06 09:33:57;;;;;;;3.60;1.55;;;17.90;99.90;;;-141.84;47.52;20895.19;5092273;28;20216;-69
2022/10/06 09:36:26;;;;;;;5.47;1.80;;;17.80;99.90;;;-141.84;47.06;20933.81;5092381;28;20249;-61
2022/10/06 09:38:56;;;;;;;5.72;1.60;;;17.80;99.90;;;-141.84;46.86;20913.50;5091958;28;20568;-61
2022/10/06 09:41:31;;;;;;;4.07;1.48;;;17.70;99.90;;;-141.84;47.52;20895.19;5092024;28;20200;-61
2022/10/06 09:44:04;;;;;;;3.28;1.50;;;17.70;99.90;;;-141.84;47.64;20907.41;5092030;28;20188;-62
2022/10/06 09:46:38;;;;;;;5.78;1.50;;;17.80;99.90;;;-141.84;46.83;20891.13;5092097;28;20180;-60
2022/10/06 09:49:17;;;;;;;4.63;1.48;;;17.70;99.90;;;-141.84;48.10;20830.16;5091776;28;20738;-61
2022/10/06 09:52:02;;;;;;;3.67;1.50;;;17.60;99.90;;;-141.84;47.75;20874.88;5092170;28;20196;-60
2022/10/06 09:54:33;;;;;;;4.60;1.70;;;17.60;99.90;;;-141.84;47.66;20872.84;5091809;28;20674;-60
2022/10/06 09:57:13;;;;;;;4.70;1.60;;;17.60;99.90;;;-141.84;47.74;20897.25;5094601;28;20192;-62
2022/10/06 09:59:44;;;;;;;7.05;1.80;;;17.50;99.90;;;-141.84;47.81;20854.53;5112251;28;20183;-60
2022/10/06 10:02:35;;;;;;;3.13;1.20;;;17.50;99.90;;;-141.84;48.70;20921.63;5112349;28;20179;-60
2022/10/06 10:05:16;;;;;;;3.88;1.65;;;17.60;99.90;;;-141.84;47.03;20885.03;5112329;28;20199;-60
2022/10/06 10:07:46;;;;;;;6.32;1.65;;;17.60;99.90;;;-141.84;47.55;20915.53;5112180;28;20692;-60
2022/10/06 10:10:22;;;;;;;5.90;1.58;;;17.70;99.90;;;-141.84;46.89;21033.44;5112426;28;20188;-61
2022/10/06 10:12:54;;;;;;;6.63;1.95;;;17.80;99.90;;;-141.84;46.36;20944.00;5111877;28;20199;-59
2022/10/06 10:15:30;;;;;;;3.88;1.60;;;17.80;99.90;;;-141.84;47.79;20946.03;5112120;28;20184;-60
2022/10/06 10:18:02;;;;;;;4.93;1.48;;;17.70;99.90;;;-141.84;47.84;20913.50;5112054;28;20217;-60
2022/10/06 10:20:36;;;;;;;6.05;1.63;;;17.70;99.90;;;-141.84;46.31;20984.66;5112205;28;20244;-63
2022/10/06 10:23:20;;;;;;;3.28;1.70;;;17.80;99.90;;;-141.84;46.81;21004.97;5111981;28;20752;-60
2022/10/06 10:26:19;;;;;;;2.63;1.60;;;17.80;99.90;;;-141.84;47.34;21013.13;5111756;28;20210;-60
2022/10/06 10:29:30;;;;;;;6.22;1.95;;;18.00;99.90;;;-141.84;46.14;21045.63;5108816;28;20203;-61
2022/10/06 10:32:11;;;;;;;4.97;1.60;;;18.20;99.90;;;-141.84;45.64;21072.06;5096755;28;20199;-60
2022/10/06 10:35:08;;;;;;;5.18;1.67;;;18.30;99.90;;;-141.84;45.38;21129.00;5111960;28;20248;-60
2022/10/06 10:37:45;;;;;;;8.63;1.90;;;18.40;99.90;;;-141.84;46.28;21068.00;5112027;28;20195;-60
2022/10/06 10:40:31;;;;;;;5.68;1.70;;;18.30;99.90;;;-141.84;46.12;21027.34;5112897;28;20194;-61
2022/10/06 10:43:19;;;;;;;4.70;1.70;;;18.30;99.90;;;-141.84;46.01;20976.53;5115760;28;20175;-61
2022/10/06 10:45:55;;;;;;;4.88;1.52;;;18.10;99.90;;;-141.84;46.24;20958.22;5115617;28;20191;-62